UAL1411 PHNL-KSFO
Flight info
| Callsign | UAL1411 |
|---|---|
| Flight time | N/A |
| Altitude | 36000 |
| Route | MKK5 KOLEA CLUTS R465 CORTT/N0482F370 R465 CINNY PIRAT3 |
| Aircraft | B77W/H-SDE1E2E3FGHIJ2J3J4J5M1RWXY/LB1D1 |
Departure
| Time | N/A |
|---|---|
| Airport | Daniel K. Inouye International Airport (PHNL) |
Arrival
| Time | 2026-05-05 01:44 |
|---|---|
| Airport | San Francisco International Airport (KSFO) |
| Time | Latitude | Longitude | Altitude | Speed | Heading |
|---|---|---|---|---|---|
| 2026-05-05 00:57 | 35.70247 | -126.19664 | 37126 ft | 485 kts | 68° |
| 2026-05-05 00:57 | 35.72375 | -126.12235 | 37034 ft | 479 kts | 68° |
| 2026-05-05 00:58 | 35.74756 | -126.04549 | 37023 ft | 480 kts | 64° |
| 2026-05-05 00:58 | 35.77386 | -125.97031 | 37006 ft | 480 kts | 64° |
| 2026-05-05 00:59 | 35.79996 | -125.89498 | 37033 ft | 480 kts | 64° |
| 2026-05-05 00:59 | 35.82594 | -125.81946 | 37022 ft | 480 kts | 64° |
| 2026-05-05 01:00 | 35.85191 | -125.74353 | 37014 ft | 480 kts | 64° |
| 2026-05-05 01:00 | 35.87757 | -125.66824 | 37021 ft | 480 kts | 64° |
| 2026-05-05 01:01 | 35.90329 | -125.59255 | 37019 ft | 482 kts | 65° |
| 2026-05-05 01:01 | 35.92918 | -125.51610 | 37018 ft | 481 kts | 65° |
| 2026-05-05 01:02 | 35.95199 | -125.44858 | 37030 ft | 481 kts | 65° |
| 2026-05-05 01:02 | 35.97613 | -125.37696 | 37011 ft | 480 kts | 65° |
| 2026-05-05 01:03 | 36.00176 | -125.30074 | 37013 ft | 481 kts | 65° |
| 2026-05-05 01:03 | 36.01433 | -125.26323 | 36644 ft | 474 kts | 65° |
| 2026-05-05 01:03 | 36.02706 | -125.22524 | 35799 ft | 478 kts | 65° |
| 2026-05-05 01:03 | 36.03968 | -125.18754 | 34850 ft | 479 kts | 65° |
| 2026-05-05 01:04 | 36.05216 | -125.15018 | 33913 ft | 468 kts | 65° |
| 2026-05-05 01:04 | 36.07605 | -125.07852 | 32527 ft | 445 kts | 65° |
| 2026-05-05 01:04 | 36.08772 | -125.04348 | 31593 ft | 436 kts | 65° |
| 2026-05-05 01:05 | 36.09905 | -125.00940 | 30748 ft | 423 kts | 65° |
| 2026-05-05 01:05 | 36.10994 | -124.97659 | 30332 ft | 411 kts | 64° |
| 2026-05-05 01:05 | 36.12064 | -124.94438 | 29795 ft | 404 kts | 64° |
| 2026-05-05 01:05 | 36.13129 | -124.91228 | 29295 ft | 400 kts | 65° |
| 2026-05-05 01:06 | 36.14204 | -124.87991 | 28812 ft | 415 kts | 65° |
| 2026-05-05 01:06 | 36.15286 | -124.84725 | 28312 ft | 415 kts | 65° |
| 2026-05-05 01:06 | 36.16373 | -124.81435 | 27792 ft | 411 kts | 65° |
| 2026-05-05 01:06 | 36.17457 | -124.78201 | 27285 ft | 408 kts | 63° |
| 2026-05-05 01:07 | 36.18796 | -124.75144 | 26802 ft | 403 kts | 56° |
| 2026-05-05 01:07 | 36.20435 | -124.72379 | 26687 ft | 398 kts | 51° |
| 2026-05-05 01:07 | 36.22162 | -124.69678 | 26660 ft | 402 kts | 50° |
| 2026-05-05 01:07 | 36.23912 | -124.66943 | 26558 ft | 401 kts | 51° |
| 2026-05-05 01:08 | 36.25625 | -124.64257 | 26418 ft | 400 kts | 51° |
| 2026-05-05 01:08 | 36.27355 | -124.61540 | 26276 ft | 400 kts | 51° |
| 2026-05-05 01:08 | 36.29067 | -124.58846 | 26148 ft | 400 kts | 51° |
| 2026-05-05 01:08 | 36.30772 | -124.56162 | 26006 ft | 398 kts | 51° |
| 2026-05-05 01:09 | 36.32498 | -124.53439 | 25859 ft | 399 kts | 51° |
| 2026-05-05 01:09 | 36.34206 | -124.50743 | 25717 ft | 398 kts | 51° |
| 2026-05-05 01:09 | 36.35902 | -124.48061 | 25581 ft | 398 kts | 51° |
| 2026-05-05 01:09 | 36.37620 | -124.45345 | 25452 ft | 397 kts | 51° |
| 2026-05-05 01:10 | 36.39311 | -124.42667 | 25311 ft | 396 kts | 51° |
| 2026-05-05 01:10 | 36.41018 | -124.39963 | 25174 ft | 396 kts | 51° |
| 2026-05-05 01:10 | 36.42694 | -124.37305 | 25034 ft | 395 kts | 50° |
| 2026-05-05 01:10 | 36.44387 | -124.34618 | 24895 ft | 394 kts | 51° |
| 2026-05-05 01:11 | 36.46088 | -124.31915 | 24783 ft | 394 kts | 51° |
| 2026-05-05 01:11 | 36.47781 | -124.29224 | 24637 ft | 394 kts | 51° |
| 2026-05-05 01:11 | 36.49450 | -124.26569 | 24508 ft | 393 kts | 51° |
| 2026-05-05 01:11 | 36.51140 | -124.23877 | 24376 ft | 393 kts | 51° |
| 2026-05-05 01:12 | 36.52827 | -124.21190 | 24234 ft | 394 kts | 51° |
| 2026-05-05 01:12 | 36.54501 | -124.18520 | 24102 ft | 392 kts | 51° |
| 2026-05-05 01:12 | 36.56167 | -124.15861 | 23974 ft | 393 kts | 51° |
| 2026-05-05 01:12 | 36.57844 | -124.13181 | 23835 ft | 393 kts | 51° |
| 2026-05-05 01:13 | 36.59525 | -124.10494 | 23694 ft | 391 kts | 51° |
| 2026-05-05 01:13 | 36.61179 | -124.07849 | 23568 ft | 390 kts | 51° |
| 2026-05-05 01:13 | 36.62843 | -124.05184 | 23435 ft | 392 kts | 51° |
| 2026-05-05 01:13 | 36.64507 | -124.02518 | 23299 ft | 391 kts | 51° |
| 2026-05-05 01:14 | 36.66181 | -123.99834 | 23164 ft | 389 kts | 51° |
| 2026-05-05 01:14 | 36.67845 | -123.97163 | 23044 ft | 390 kts | 51° |
| 2026-05-05 01:14 | 36.69498 | -123.94508 | 22909 ft | 391 kts | 51° |
| 2026-05-05 01:14 | 36.71153 | -123.91847 | 22764 ft | 389 kts | 51° |
| 2026-05-05 01:15 | 36.72827 | -123.89154 | 22635 ft | 388 kts | 51° |
| 2026-05-05 01:15 | 36.74468 | -123.86513 | 22497 ft | 388 kts | 51° |
| 2026-05-05 01:15 | 36.76119 | -123.83852 | 22365 ft | 388 kts | 51° |
| 2026-05-05 01:15 | 36.77754 | -123.81216 | 22234 ft | 387 kts | 51° |
| 2026-05-05 01:16 | 36.79406 | -123.78550 | 22100 ft | 387 kts | 51° |
| 2026-05-05 01:16 | 36.81040 | -123.75912 | 21969 ft | 386 kts | 51° |
| 2026-05-05 01:16 | 36.82674 | -123.73269 | 21837 ft | 387 kts | 51° |
| 2026-05-05 01:16 | 36.84324 | -123.70601 | 21709 ft | 387 kts | 51° |
| 2026-05-05 01:17 | 36.85975 | -123.67928 | 21568 ft | 385 kts | 51° |
| 2026-05-05 01:17 | 36.87594 | -123.65305 | 21438 ft | 385 kts | 51° |
| 2026-05-05 01:17 | 36.89238 | -123.62640 | 21298 ft | 382 kts | 52° |
| 2026-05-05 01:17 | 36.90822 | -123.60068 | 21169 ft | 365 kts | 51° |
| 2026-05-05 01:18 | 36.92323 | -123.57630 | 21045 ft | 351 kts | 51° |
| 2026-05-05 01:18 | 36.93798 | -123.55232 | 20870 ft | 345 kts | 52° |
| 2026-05-05 01:18 | 36.95267 | -123.52842 | 20415 ft | 347 kts | 52° |
| 2026-05-05 01:18 | 36.96714 | -123.50485 | 19887 ft | 340 kts | 52° |
| 2026-05-05 01:19 | 36.98108 | -123.48212 | 19526 ft | 323 kts | 52° |
| 2026-05-05 01:19 | 36.99469 | -123.45993 | 19266 ft | 319 kts | 52° |
| 2026-05-05 01:19 | 37.00814 | -123.43798 | 18860 ft | 319 kts | 51° |
| 2026-05-05 01:19 | 37.02145 | -123.41624 | 18479 ft | 315 kts | 52° |
| 2026-05-05 01:20 | 37.03468 | -123.39462 | 18116 ft | 312 kts | 51° |
| 2026-05-05 01:20 | 37.04784 | -123.37311 | 17757 ft | 313 kts | 51° |
| 2026-05-05 01:20 | 37.06102 | -123.35153 | 17396 ft | 313 kts | 51° |
| 2026-05-05 01:20 | 37.07426 | -123.32985 | 17033 ft | 312 kts | 52° |
| 2026-05-05 01:21 | 37.08741 | -123.30831 | 16638 ft | 312 kts | 52° |
| 2026-05-05 01:21 | 37.10055 | -123.28676 | 16261 ft | 310 kts | 52° |
| 2026-05-05 01:21 | 37.11359 | -123.26537 | 15906 ft | 307 kts | 52° |
| 2026-05-05 01:21 | 37.12648 | -123.24421 | 15557 ft | 308 kts | 52° |
| 2026-05-05 01:22 | 37.13957 | -123.22271 | 15197 ft | 308 kts | 52° |
| 2026-05-05 01:22 | 37.15248 | -123.20149 | 14839 ft | 305 kts | 52° |
| 2026-05-05 01:22 | 37.16523 | -123.18052 | 14491 ft | 304 kts | 52° |
| 2026-05-05 01:22 | 37.17804 | -123.15943 | 14142 ft | 305 kts | 51° |
| 2026-05-05 01:23 | 37.19050 | -123.13787 | 13776 ft | 307 kts | 59° |
| 2026-05-05 01:23 | 37.19861 | -123.11305 | 13423 ft | 305 kts | 70° |
| 2026-05-05 01:23 | 37.20482 | -123.08771 | 13075 ft | 302 kts | 71° |
| 2026-05-05 01:23 | 37.21064 | -123.06291 | 12728 ft | 298 kts | 72° |
| 2026-05-05 01:24 | 37.21644 | -123.03826 | 12374 ft | 295 kts | 72° |
| 2026-05-05 01:24 | 37.22222 | -123.01376 | 12044 ft | 291 kts | 72° |
| 2026-05-05 01:24 | 37.22796 | -122.98943 | 11572 ft | 293 kts | 72° |
| 2026-05-05 01:24 | 37.23373 | -122.96498 | 11091 ft | 295 kts | 72° |
| 2026-05-05 01:25 | 37.23955 | -122.94030 | 10666 ft | 294 kts | 72° |
| 2026-05-05 01:25 | 37.24528 | -122.91597 | 10290 ft | 291 kts | 72° |
| 2026-05-05 01:25 | 37.25097 | -122.89178 | 10132 ft | 281 kts | 72° |
| 2026-05-05 01:25 | 37.25633 | -122.86892 | 10054 ft | 269 kts | 72° |
| 2026-05-05 01:26 | 37.26154 | -122.84675 | 9869 ft | 266 kts | 72° |
| 2026-05-05 01:26 | 37.26688 | -122.82400 | 9798 ft | 271 kts | 72° |
| 2026-05-05 01:26 | 37.27219 | -122.80130 | 9742 ft | 272 kts | 72° |
| 2026-05-05 01:26 | 37.27755 | -122.77834 | 9675 ft | 270 kts | 72° |
| 2026-05-05 01:27 | 37.28281 | -122.75585 | 9589 ft | 270 kts | 72° |
| 2026-05-05 01:27 | 37.28812 | -122.73308 | 9494 ft | 270 kts | 72° |
| 2026-05-05 01:27 | 37.29335 | -122.71069 | 9422 ft | 269 kts | 72° |
| 2026-05-05 01:27 | 37.29861 | -122.68810 | 9358 ft | 268 kts | 72° |
| 2026-05-05 01:28 | 37.30383 | -122.66565 | 9267 ft | 269 kts | 73° |
| 2026-05-05 01:28 | 37.30907 | -122.64311 | 9188 ft | 268 kts | 73° |
| 2026-05-05 01:28 | 37.31425 | -122.62080 | 9118 ft | 268 kts | 73° |
| 2026-05-05 01:28 | 37.31949 | -122.59822 | 9026 ft | 267 kts | 73° |
| 2026-05-05 01:29 | 37.32467 | -122.57589 | 8957 ft | 267 kts | 73° |
| 2026-05-05 01:29 | 37.32987 | -122.55342 | 8881 ft | 268 kts | 73° |
| 2026-05-05 01:29 | 37.33505 | -122.53104 | 8787 ft | 267 kts | 73° |
| 2026-05-05 01:29 | 37.34022 | -122.50865 | 8696 ft | 267 kts | 73° |
| 2026-05-05 01:30 | 37.34535 | -122.48645 | 8644 ft | 266 kts | 73° |
| 2026-05-05 01:30 | 37.35055 | -122.46391 | 8582 ft | 267 kts | 73° |
| 2026-05-05 01:30 | 37.35568 | -122.44164 | 8509 ft | 266 kts | 73° |
| 2026-05-05 01:30 | 37.36085 | -122.41922 | 8432 ft | 266 kts | 73° |
| 2026-05-05 01:31 | 37.36596 | -122.39700 | 8159 ft | 266 kts | 73° |
| 2026-05-05 01:31 | 37.37105 | -122.37486 | 7979 ft | 271 kts | 73° |
| 2026-05-05 01:31 | 37.37633 | -122.35185 | 7960 ft | 274 kts | 73° |
| 2026-05-05 01:31 | 37.38165 | -122.32866 | 7954 ft | 275 kts | 74° |
| 2026-05-05 01:32 | 37.38691 | -122.30572 | 7953 ft | 274 kts | 74° |
| 2026-05-05 01:32 | 37.39219 | -122.28263 | 7956 ft | 274 kts | 74° |
| 2026-05-05 01:32 | 37.39925 | -122.26002 | 7728 ft | 279 kts | 57° |
| 2026-05-05 01:32 | 37.41223 | -122.24217 | 7482 ft | 273 kts | 44° |
| 2026-05-05 01:33 | 37.42625 | -122.22616 | 7421 ft | 274 kts | 43° |
| 2026-05-05 01:33 | 37.44049 | -122.21004 | 7414 ft | 276 kts | 43° |
| 2026-05-05 01:33 | 37.45470 | -122.19391 | 7414 ft | 276 kts | 43° |
| 2026-05-05 01:33 | 37.46893 | -122.17779 | 7418 ft | 275 kts | 43° |
| 2026-05-05 01:34 | 37.48329 | -122.16151 | 7165 ft | 281 kts | 43° |
| 2026-05-05 01:34 | 37.49780 | -122.14513 | 6617 ft | 277 kts | 43° |
| 2026-05-05 01:34 | 37.51197 | -122.12923 | 6069 ft | 274 kts | 43° |
| 2026-05-05 01:34 | 37.52623 | -122.11319 | 5499 ft | 272 kts | 43° |
| 2026-05-05 01:35 | 37.54010 | -122.09741 | 4935 ft | 270 kts | 43° |
| 2026-05-05 01:35 | 37.55387 | -122.08119 | 4362 ft | 270 kts | 49° |
| 2026-05-05 01:35 | 37.56277 | -122.06082 | 3767 ft | 268 kts | 76° |
| 2026-05-05 01:35 | 37.56527 | -122.03770 | 3197 ft | 268 kts | 94° |
| 2026-05-05 01:36 | 37.55975 | -122.01598 | 2965 ft | 265 kts | 124° |
| 2026-05-05 01:36 | 37.54789 | -121.99786 | 2945 ft | 266 kts | 135° |
| 2026-05-05 01:36 | 37.53255 | -121.98567 | 2930 ft | 263 kts | 164° |
| 2026-05-05 01:36 | 37.51487 | -121.98408 | 2926 ft | 250 kts | 193° |
| 2026-05-05 01:37 | 37.49985 | -121.99317 | 2923 ft | 231 kts | 224° |
| 2026-05-05 01:37 | 37.49172 | -122.00954 | 2926 ft | 219 kts | 256° |
| 2026-05-05 01:37 | 37.48908 | -122.02823 | 2944 ft | 216 kts | 262° |
| 2026-05-05 01:37 | 37.48762 | -122.04673 | 2941 ft | 214 kts | 272° |
| 2026-05-05 01:38 | 37.49005 | -122.06532 | 2945 ft | 214 kts | 286° |
| 2026-05-05 01:38 | 37.49522 | -122.08284 | 2947 ft | 214 kts | 293° |
| 2026-05-05 01:38 | 37.50165 | -122.09986 | 2948 ft | 214 kts | 296° |
| 2026-05-05 01:38 | 37.50852 | -122.11642 | 2950 ft | 214 kts | 298° |
| 2026-05-05 01:39 | 37.51570 | -122.13303 | 2950 ft | 213 kts | 298° |
| 2026-05-05 01:39 | 37.52283 | -122.14941 | 2951 ft | 213 kts | 298° |
| 2026-05-05 01:39 | 37.52988 | -122.16584 | 2950 ft | 213 kts | 298° |
| 2026-05-05 01:39 | 37.53689 | -122.18225 | 2942 ft | 214 kts | 298° |
| 2026-05-05 01:40 | 37.54397 | -122.19891 | 2684 ft | 215 kts | 298° |
| 2026-05-05 01:40 | 37.55098 | -122.21538 | 2424 ft | 213 kts | 298° |
| 2026-05-05 01:40 | 37.55790 | -122.23165 | 2164 ft | 210 kts | 298° |
| 2026-05-05 01:40 | 37.56453 | -122.24719 | 1917 ft | 189 kts | 298° |
| 2026-05-05 01:41 | 37.57050 | -122.26115 | 1695 ft | 175 kts | 298° |
| 2026-05-05 01:41 | 37.57619 | -122.27454 | 1478 ft | 169 kts | 298° |
| 2026-05-05 01:41 | 37.58165 | -122.28744 | 1266 ft | 166 kts | 297° |
| 2026-05-05 01:41 | 37.58704 | -122.30018 | 1052 ft | 164 kts | 297° |
| 2026-05-05 01:42 | 37.59221 | -122.31239 | 849 ft | 152 kts | 297° |
| 2026-05-05 01:42 | 37.59697 | -122.32361 | 659 ft | 139 kts | 297° |
| 2026-05-05 01:42 | 37.60144 | -122.33422 | 481 ft | 135 kts | 297° |
| 2026-05-05 01:42 | 37.60583 | -122.34450 | 283 ft | 132 kts | 297° |
| 2026-05-05 01:43 | 37.61017 | -122.35466 | 128 ft | 132 kts | 297° |
| 2026-05-05 01:43 | 37.61436 | -122.36459 | 21 ft | 119 kts | 297° |
| 2026-05-05 01:43 | 37.61772 | -122.37267 | 26 ft | 87 kts | 298° |
| 2026-05-05 01:43 | 37.61998 | -122.37807 | 33 ft | 51 kts | 298° |
| 2026-05-05 01:44 | 37.62113 | -122.38080 | 36 ft | 25 kts | 298° |
| 2026-05-05 01:44 | 37.62167 | -122.38269 | 37 ft | 16 kts | 254° |
| 2026-05-05 01:44 | 37.62122 | -122.38364 | 38 ft | 10 kts | 268° |